Time;durP1;ratioP1;P1;durP2;ratioP2;P2;SDS_P1;SDS_P2;PMS_P1;PMS_P2;Temp;Humidity;BMP_temperature;BMP_pressure;BME280_temperature;BME280_humidity;BME280_pressure;Samples;Min_cycle;Max_cycle;Signal;HPM_P1;HPM_P2
2024/01/26 11:00:20;;;;;;;1.40;1.27;;;;;;;9.76;100.00;99466.44;5109049;28;21223;-89
2024/01/26 11:02:49;;;;;;;1.60;1.50;;;;;;;10.41;100.00;99486.94;5091161;28;39426;-89
2024/01/26 11:05:17;;;;;;;1.93;1.37;;;;;;;11.09;100.00;99508.94;5090846;28;41232;-89
2024/01/26 11:10:28;;;;;;;2.70;1.33;;;;;;;11.70;100.00;99503.72;5090059;28;42492;-87
2024/01/26 11:13:03;;;;;;;1.93;1.47;;;;;;;11.79;100.00;99482.00;5074682;28;42564;-87
2024/01/26 11:15:36;;;;;;;1.70;0.90;;;;;;;11.88;100.00;99476.16;5091114;28;40671;-88
2024/01/26 11:18:05;;;;;;;0.80;0.80;;;;;;;11.98;100.00;99465.03;5092722;28;41840;-86
2024/01/26 11:20:37;;;;;;;2.17;1.27;;;;;;;12.21;100.00;99501.69;5074039;28;41726;-88
2024/01/26 11:23:06;;;;;;;1.40;1.13;;;;;;;12.22;100.00;99482.16;5124992;27;38571;-88
2024/01/26 11:25:36;;;;;;;1.27;1.07;;;;;;;12.10;100.00;99459.00;5090328;28;40554;-89
2024/01/26 11:28:05;;;;;;;1.53;1.10;;;;;;;11.88;100.00;99431.03;5090715;28;43779;-89
2024/01/26 11:30:36;;;;;;;1.20;1.00;;;;;;;12.12;100.00;99457.06;5089784;28;42563;-88
2024/01/26 11:33:04;;;;;;;2.10;1.10;;;;;;;11.97;100.00;99436.78;5125194;27;38714;-90
2024/01/26 11:35:35;;;;;;;1.57;1.10;;;;;;;11.86;100.00;99425.00;5090427;28;42459;-89
2024/01/26 11:38:04;;;;;;;1.30;1.20;;;;;;;12.18;100.00;99476.16;5124312;27;42208;-89
2024/01/26 11:40:33;;;;;;;1.30;1.20;;;;;;;11.96;100.00;99429.75;5092654;27;40883;-88
2024/01/26 11:43:47;;;;;;;1.87;1.30;;;;;;;12.01;100.00;99427.66;5129732;27;39157;-90
2024/01/26 11:46:18;;;;;;;1.37;1.17;;;;;;;12.10;100.00;99467.81;5114107;27;40272;-83
2024/01/26 11:48:45;;;;;;;1.30;1.20;;;;;;;12.08;100.00;99452.91;5131475;27;43491;-85
2024/01/26 11:51:21;;;;;;;2.30;1.10;;;;;;;12.22;100.00;99466.22;5130915;27;41886;-86
2024/01/26 11:53:48;;;;;;;1.37;1.27;;;;;;;12.11;100.00;99431.50;5130818;27;40796;-86
2024/01/26 11:56:16;;;;;;;1.50;1.37;;;;;;;12.24;100.00;99443.94;5130322;27;42982;-86
2024/01/26 11:59:03;;;;;;;1.00;1.00;;;;;;;12.28;100.00;99441.09;5131108;27;41589;-86
2024/01/26 12:01:47;;;;;;;1.47;1.27;;;;;;;12.36;100.00;99438.84;5130160;27;42467;-85
2024/01/26 12:04:15;;;;;;;1.40;1.20;;;;;;;12.29;100.00;99419.75;5130866;27;39056;-86
2024/01/26 12:06:46;;;;;;;1.30;1.20;;;;;;;12.34;100.00;99425.66;5126274;27;41072;-87
2024/01/26 12:09:18;;;;;;;1.13;1.13;;;;;;;12.36;100.00;99439.72;5148394;27;42840;-91
2024/01/26 12:12:08;;;;;;;1.80;1.30;;;;;;;12.18;100.00;99415.09;5116617;27;41114;-90
2024/01/26 12:14:38;;;;;;;2.00;1.07;;;;;;;12.36;100.00;99444.16;5117762;27;39119;-87
2024/01/26 12:17:07;;;;;;;1.50;1.40;;;;;;;12.29;100.00;99432.19;5116271;27;42492;-84
2024/01/26 12:19:43;;;;;;;1.20;1.10;;;;;;;12.37;100.00;99445.84;5116841;27;42500;-88
2024/01/26 12:22:11;;;;;;;1.67;1.17;;;;;;;12.18;100.00;99408.94;5116234;27;41867;-87
2024/01/26 12:24:40;;;;;;;1.43;1.20;;;;;;;12.38;100.00;99436.94;5116921;27;39335;-86
2024/01/26 12:27:09;;;;;;;1.90;1.60;;;;;;;12.15;100.00;99383.41;5116548;27;42399;-86
2024/01/26 12:29:41;;;;;;;1.63;1.00;;;;;;;12.63;100.00;99446.91;5116586;27;41923;-86
2024/01/26 12:32:10;;;;;;;1.40;1.30;;;;;;;12.58;100.00;99448.06;5116655;27;41239;-85
2024/01/26 12:34:38;;;;;;;2.23;1.37;;;;;;;12.17;100.00;99384.19;5116505;27;39031;-84
2024/01/26 12:37:06;;;;;;;1.30;1.20;;;;;;;12.52;100.00;99431.63;5116430;27;42179;-84
2024/01/26 12:39:34;;;;;;;1.83;1.30;;;;;;;12.29;100.00;99385.22;5099266;27;41662;-83
2024/01/26 12:42:18;;;;;;;2.00;1.17;;;;;;;12.51;100.00;99420.16;5116631;27;41351;-86
2024/01/26 12:44:46;;;;;;;1.33;1.23;;;;;;;12.58;100.00;99442.75;5113529;27;40058;-86
2024/01/26 12:47:18;;;;;;;1.30;1.20;;;;;;;12.42;100.00;99410.09;5101241;27;40006;-86
2024/01/26 12:49:48;;;;;;;1.33;1.17;;;;;;;12.56;100.00;99431.38;5116137;27;41872;-86
2024/01/26 12:52:19;;;;;;;1.20;1.10;;;;;;;12.53;100.00;99431.53;5116865;27;43490;-83
2024/01/26 12:54:52;;;;;;;1.73;1.20;;;;;;;12.34;100.00;99409.72;5116018;27;40368;-85
2024/01/26 12:57:24;;;;;;;1.00;1.00;;;;;;;12.37;100.00;99420.13;5129333;27;42774;-87
2024/01/26 12:59:54;;;;;;;2.50;1.00;;;;;;;12.27;100.00;99402.19;5108584;27;42421;-86
2024/01/26 16:19:44;;;;;;;5.37;1.47;;;;;;;6.55;100.00;99773.19;5192650;27;20557;-89
2024/01/26 16:22:28;;;;;;;2.20;0.97;;;;;;;6.96;100.00;99784.13;5173943;27;39290;-85
